createdAt,value
2019-02-26T00:02:25.946Z,103021.80
2019-02-26T00:04:58.521Z,103022.73
2019-02-26T00:07:31.661Z,103023.84
2019-02-26T00:10:04.633Z,103026.48
2019-02-26T00:12:35.682Z,103022.26
2019-02-26T00:15:08.778Z,103021.62
2019-02-26T00:17:42.610Z,103028.64
2019-02-26T00:20:15.060Z,103020.88
2019-02-26T00:22:46.104Z,103021.59
2019-02-26T00:25:17.944Z,103027.52
2019-02-26T00:27:51.879Z,103033.28
2019-02-26T00:30:23.177Z,103035.98
2019-02-26T00:32:55.381Z,103044.02
2019-02-26T00:35:27.765Z,103040.36
2019-02-26T00:37:59.088Z,103035.69
2019-02-26T00:40:32.084Z,103034.96
2019-02-26T00:43:04.790Z,103037.17
2019-02-26T00:45:36.939Z,103029.93
2019-02-26T00:48:09.084Z,103026.91
2019-02-26T00:50:40.370Z,103021.84
2019-02-26T00:53:11.614Z,103014.43
2019-02-26T00:56:08.011Z,103019.14
2019-02-26T00:58:41.521Z,103023.47
2019-02-26T01:01:14.719Z,103020.62
2019-02-26T01:03:47.131Z,103018.84
2019-02-26T01:06:18.844Z,103009.95
2019-02-26T01:08:50.137Z,103010.67
2019-02-26T01:11:22.197Z,103008.92
2019-02-26T01:13:55.147Z,103009.91
2019-02-26T01:16:27.101Z,103011.62
2019-02-26T01:18:58.451Z,103005.16
2019-02-26T01:21:31.113Z,103006.73
2019-02-26T01:24:04.245Z,103007.94
2019-02-26T01:26:35.502Z,103007.18
2019-02-26T01:29:06.888Z,102990.21
2019-02-26T01:31:38.206Z,102980.78
2019-02-26T01:34:11.483Z,102982.37
2019-02-26T01:36:43.137Z,102982.09
2019-02-26T01:39:16.209Z,102989.08
2019-02-26T01:41:50.376Z,102985.89
2019-02-26T01:44:21.214Z,102981.41
2019-02-26T01:46:53.354Z,102985.13
2019-02-26T01:49:26.708Z,102981.40
2019-02-26T01:51:58.650Z,102981.23
2019-02-26T01:54:30.507Z,102975.66
2019-02-26T01:57:02.920Z,102969.34
2019-02-26T01:59:34.658Z,102965.58
2019-02-26T02:02:06.295Z,102967.49
2019-02-26T02:04:39.331Z,102966.40
2019-02-26T02:07:10.608Z,102961.41
2019-02-26T02:09:41.984Z,102952.98
2019-02-26T02:12:13.236Z,102951.19
2019-02-26T02:14:44.513Z,102948.22
2019-02-26T02:17:15.715Z,102947.28
2019-02-26T02:19:47.007Z,102955.05
2019-02-26T02:22:19.059Z,102943.52
2019-02-26T02:24:53.364Z,102947.08
2019-02-26T02:27:27.240Z,102950.07
2019-02-26T02:29:57.768Z,102951.49
2019-02-26T02:32:31.710Z,102952.41
2019-02-26T02:35:04.375Z,102952.84
2019-02-26T02:40:05.480Z,102944.58
2019-02-26T02:42:37.718Z,102945.98
2019-02-26T02:45:13.532Z,102943.55
2019-02-26T02:47:44.180Z,102939.38
2019-02-26T02:50:18.188Z,102928.37
2019-02-26T02:52:50.746Z,102922.69
2019-02-26T02:55:21.713Z,102922.13
2019-02-26T02:57:55.096Z,102920.58
2019-02-26T03:00:28.234Z,102916.58
2019-02-26T03:02:58.921Z,102913.90
2019-02-26T03:05:32.113Z,102918.81
2019-02-26T03:08:03.169Z,102916.38
2019-02-26T03:10:36.615Z,102921.94
2019-02-26T03:13:07.446Z,102931.34
2019-02-26T03:15:38.812Z,102932.74
2019-02-26T03:18:12.535Z,102927.87
2019-02-26T03:20:43.076Z,102931.77
2019-02-26T03:23:18.974Z,102931.13
2019-02-26T03:25:47.871Z,102935.52
2019-02-26T03:28:20.009Z,102939.46
2019-02-26T03:30:51.270Z,102923.48
2019-02-26T03:33:22.559Z,102922.73
2019-02-26T03:35:53.781Z,102917.94
2019-02-26T03:38:26.877Z,102924.87
2019-02-26T03:40:59.116Z,102921.05
2019-02-26T03:46:06.683Z,102919.79
2019-02-26T03:48:37.946Z,102916.59
2019-02-26T03:51:09.151Z,102917.91
2019-02-26T03:53:41.856Z,102917.47
2019-02-26T03:56:14.882Z,102926.83
2019-02-26T03:58:46.767Z,102922.89
2019-02-26T04:01:19.436Z,102928.50
2019-02-26T04:03:51.186Z,102928.70
2019-02-26T04:06:22.460Z,102926.36
2019-02-26T04:08:55.905Z,102930.22
2019-02-26T04:11:27.989Z,102926.85
2019-02-26T04:13:59.234Z,102923.80
2019-02-26T04:16:32.377Z,102930.45
2019-02-26T04:19:08.608Z,102936.69
2019-02-26T04:22:31.594Z,102925.25
2019-02-26T04:25:11.212Z,102929.98
2019-02-26T04:28:32.963Z,102936.67
2019-02-26T04:32:15.015Z,102936.00
2019-02-26T04:35:57.375Z,102940.64
2019-02-26T04:39:18.926Z,102942.05
2019-02-26T04:42:28.883Z,102947.59
2019-02-26T04:46:04.640Z,102946.80
2019-02-26T04:48:37.414Z,102946.48
2019-02-26T04:53:48.599Z,102968.67
2019-02-26T04:56:18.948Z,102973.73
2019-02-26T04:58:50.193Z,102968.38
2019-02-26T05:01:21.522Z,102966.95
2019-02-26T05:03:52.812Z,102969.03
2019-02-26T05:06:24.067Z,102962.70
2019-02-26T05:08:56.858Z,102965.85
2019-02-26T05:11:32.611Z,102968.45
2019-02-26T05:14:01.325Z,102971.70
2019-02-26T05:16:34.737Z,102970.61
2019-02-26T05:19:05.546Z,102965.75
2019-02-26T05:21:37.941Z,102967.91
2019-02-26T05:24:09.425Z,102970.27
2019-02-26T05:26:40.659Z,102975.78
2019-02-26T05:29:15.526Z,102984.50
2019-02-26T05:31:46.807Z,102982.44
2019-02-26T05:34:23.240Z,102984.20
2019-02-26T05:36:53.980Z,102992.50
2019-02-26T05:39:26.744Z,102988.75
2019-02-26T05:42:00.719Z,102987.16
2019-02-26T05:44:31.098Z,102989.44
2019-02-26T05:47:02.378Z,102993.86
2019-02-26T05:49:35.311Z,103001.52
2019-02-26T05:52:07.102Z,102998.27
2019-02-26T05:54:38.523Z,102990.53
2019-02-26T05:57:25.521Z,102989.27
2019-02-26T05:59:42.621Z,102984.37
2019-02-26T06:02:16.205Z,102987.91
2019-02-26T06:04:46.838Z,102985.94
2019-02-26T06:07:21.759Z,102988.42
2019-02-26T06:09:53.631Z,102980.28
2019-02-26T06:12:23.969Z,102978.13
2019-02-26T06:14:57.698Z,102982.86
2019-02-26T06:17:28.114Z,102984.09
2019-02-26T06:20:17.522Z,102980.80
2019-02-26T06:22:48.812Z,102991.38
2019-02-26T06:25:23.982Z,102991.20
2019-02-26T06:27:52.989Z,102982.66
2019-02-26T06:30:24.266Z,102987.06
2019-02-26T06:32:59.676Z,102988.47
2019-02-26T06:35:28.378Z,102989.94
2019-02-26T06:38:01.973Z,102998.20
2019-02-26T06:40:36.749Z,102998.05
2019-02-26T06:43:05.453Z,102995.69
2019-02-26T06:45:37.969Z,103000.77
2019-02-26T06:48:12.599Z,102995.73
2019-02-26T06:50:43.494Z,102993.20
2019-02-26T06:53:18.147Z,102986.42
2019-02-26T06:55:47.902Z,102981.78
2019-02-26T06:58:27.306Z,102980.30
2019-02-26T07:01:00.254Z,102977.97
2019-02-26T07:03:31.509Z,102975.02
2019-02-26T07:06:04.830Z,102976.06
2019-02-26T07:08:35.718Z,102976.23
2019-02-26T07:11:07.355Z,102976.88
2019-02-26T07:13:41.037Z,102973.86
2019-02-26T07:16:11.825Z,102970.56
2019-02-26T07:18:43.351Z,102974.47
2019-02-26T07:21:14.594Z,102972.71
2019-02-26T07:23:45.977Z,102980.60
2019-02-26T07:26:18.425Z,102966.30
2019-02-26T07:28:51.039Z,102963.70
2019-02-26T07:31:24.283Z,102962.02
2019-02-26T07:33:58.211Z,102953.16
2019-02-26T07:36:29.716Z,102955.13
2019-02-26T07:39:01.516Z,102957.15
2019-02-26T07:41:32.886Z,102956.86
2019-02-26T07:44:04.143Z,102960.86
2019-02-26T07:46:37.548Z,102958.06
2019-02-26T07:49:08.654Z,102961.51
2019-02-26T07:51:41.086Z,102963.69
2019-02-26T07:54:13.143Z,102963.53
2019-02-26T07:56:44.433Z,102959.17
2019-02-26T07:59:27.279Z,102963.42
2019-02-26T08:01:51.509Z,102959.02
2019-02-26T08:04:22.878Z,102962.41
2019-02-26T08:06:56.725Z,102962.84
2019-02-26T08:09:27.030Z,102963.66
2019-02-26T08:11:58.399Z,102963.23
2019-02-26T08:14:29.783Z,102961.98
2019-02-26T08:17:01.876Z,102953.05
2019-02-26T08:19:34.969Z,102959.35
2019-02-26T08:22:07.105Z,102956.83
2019-02-26T08:24:38.349Z,102962.67
2019-02-26T08:27:11.592Z,102956.70
2019-02-26T08:29:42.731Z,102951.72
2019-02-26T08:32:18.128Z,102947.42
2019-02-26T08:34:47.036Z,102951.17
2019-02-26T08:37:18.287Z,102950.47
2019-02-26T08:39:50.106Z,102951.48
2019-02-26T08:42:21.577Z,102951.55
2019-02-26T08:44:54.201Z,102960.95
2019-02-26T08:47:25.916Z,102958.14
2019-02-26T08:49:58.807Z,102954.96
2019-02-26T08:52:30.191Z,102957.75
2019-02-26T08:55:01.634Z,102961.05
2019-02-26T08:57:32.973Z,102950.92
2019-02-26T09:00:04.744Z,102960.98
2019-02-26T09:02:36.040Z,102953.48
2019-02-26T09:05:09.859Z,102950.44
2019-02-26T09:07:43.328Z,102944.44
2019-02-26T09:10:17.326Z,102956.50
2019-02-26T09:12:48.894Z,102952.39
2019-02-26T09:15:21.172Z,102954.81
2019-02-26T09:17:52.456Z,102954.95
2019-02-26T09:20:23.848Z,102955.00
2019-02-26T09:22:56.464Z,102951.20
2019-02-26T09:25:30.883Z,102949.08
2019-02-26T09:28:01.404Z,102954.01
2019-02-26T09:30:33.907Z,102950.53
2019-02-26T09:33:06.417Z,102954.33
2019-02-26T09:35:38.614Z,102950.70
2019-02-26T09:38:09.965Z,102949.33
2019-02-26T09:40:41.266Z,102953.42
2019-02-26T09:43:14.764Z,102963.04
2019-02-26T09:45:45.894Z,102956.38
2019-02-26T09:48:19.505Z,102961.16
2019-02-26T09:50:51.354Z,102956.88
2019-02-26T09:53:22.647Z,102952.88
2019-02-26T09:55:53.970Z,102958.61
2019-02-26T09:58:25.413Z,102956.81
2019-02-26T10:00:56.829Z,102953.54
2019-02-26T10:03:29.707Z,102962.81
2019-02-26T10:06:00.962Z,102963.14
2019-02-26T10:08:32.288Z,102969.30
2019-02-26T10:11:04.895Z,102967.14
2019-02-26T10:13:36.384Z,102974.06
2019-02-26T10:16:08.921Z,102970.84
2019-02-26T10:18:40.483Z,102978.45
2019-02-26T10:21:14.717Z,102979.24
2019-02-26T10:23:47.218Z,102977.44
2019-02-26T10:26:39.327Z,102970.41
2019-02-26T10:29:11.151Z,102971.90
2019-02-26T10:31:42.605Z,102977.03
2019-02-26T10:34:15.759Z,102971.53
2019-02-26T10:36:49.310Z,102966.17
2019-02-26T10:39:20.827Z,102967.51
2019-02-26T10:41:52.991Z,102964.86
2019-02-26T10:44:24.248Z,102970.76
2019-02-26T10:46:55.584Z,102964.25
2019-02-26T10:49:28.631Z,102964.48
2019-02-26T10:51:59.931Z,102957.33
2019-02-26T10:54:35.451Z,102956.70
2019-02-26T10:57:07.438Z,102959.95
2019-02-26T10:59:37.219Z,102955.58
2019-02-26T11:02:09.644Z,102962.81
2019-02-26T11:04:41.812Z,102956.01
2019-02-26T11:07:14.269Z,102956.73
2019-02-26T11:09:49.519Z,102959.08
2019-02-26T11:12:20.616Z,102950.86
2019-02-26T11:14:51.828Z,102951.30
2019-02-26T11:17:45.658Z,102951.78
2019-02-26T11:20:18.474Z,102955.94
2019-02-26T11:22:51.991Z,102946.75
2019-02-26T11:25:26.888Z,102946.06
2019-02-26T11:27:57.441Z,102943.97
2019-02-26T11:30:32.240Z,102940.34
2019-02-26T11:33:11.341Z,102938.70
2019-02-26T11:35:47.089Z,102942.33
2019-02-26T11:38:23.470Z,102936.05
2019-02-26T11:41:02.782Z,102938.81
2019-02-26T11:43:45.794Z,102931.91
2019-02-26T11:46:25.280Z,102933.84
2019-02-26T11:49:00.855Z,102925.98
2019-02-26T11:51:41.841Z,102922.28
2019-02-26T11:54:20.007Z,102921.48
2019-02-26T11:56:57.128Z,102917.86
2019-02-26T11:59:33.347Z,102916.90
2019-02-26T12:02:06.405Z,102925.88
2019-02-26T12:04:40.730Z,102919.06
2019-02-26T12:07:14.256Z,102913.27
2019-02-26T12:09:47.537Z,102912.88
2019-02-26T12:12:22.818Z,102916.12
2019-02-26T12:14:55.584Z,102907.66
2019-02-26T12:17:29.976Z,102907.84
2019-02-26T12:20:03.634Z,102904.58
2019-02-26T12:22:41.086Z,102906.64
2019-02-26T12:25:15.331Z,102899.67
2019-02-26T12:27:48.219Z,102896.45
2019-02-26T12:30:24.920Z,102891.22
2019-02-26T12:33:01.689Z,102885.55
2019-02-26T12:35:37.901Z,102883.09
2019-02-26T12:38:28.179Z,102884.68
2019-02-26T12:41:21.018Z,102877.75
2019-02-26T12:43:52.463Z,102872.16
2019-02-26T12:46:25.131Z,102870.02
2019-02-26T12:48:57.283Z,102866.50
2019-02-26T12:51:31.756Z,102860.14
2019-02-26T12:54:03.398Z,102855.98
2019-02-26T12:56:37.310Z,102854.02
2019-02-26T12:59:07.733Z,102850.83
2019-02-26T13:01:40.849Z,102846.09
2019-02-26T13:04:13.112Z,102845.38
2019-02-26T13:06:48.253Z,102837.30
2019-02-26T13:09:18.371Z,102836.64
2019-02-26T13:12:01.219Z,102830.09
2019-02-26T13:14:23.795Z,102834.06
2019-02-26T13:16:57.076Z,102831.38
2019-02-26T13:19:32.723Z,102822.90
2019-02-26T13:22:06.641Z,102816.53
2019-02-26T13:24:34.147Z,102816.89
2019-02-26T13:27:05.611Z,102819.27
2019-02-26T13:29:53.486Z,102816.42
2019-02-26T13:32:21.004Z,102814.61
2019-02-26T13:34:55.639Z,102803.83
2019-02-26T13:37:36.464Z,102804.99
2019-02-26T13:40:12.795Z,102795.59
2019-02-26T13:42:49.893Z,102790.02
2019-02-26T13:45:21.175Z,102787.28
2019-02-26T13:48:00.720Z,102789.39
2019-02-26T13:50:28.441Z,102786.27
2019-02-26T13:53:00.047Z,102784.22
2019-02-26T13:55:31.502Z,102778.44
2019-02-26T13:58:11.486Z,102774.11
2019-02-26T14:00:37.268Z,102778.13
2019-02-26T14:03:08.763Z,102775.16
2019-02-26T14:05:40.083Z,102774.83
2019-02-26T14:08:12.028Z,102762.56
2019-02-26T14:10:43.576Z,102761.87
2019-02-26T14:13:15.175Z,102759.00
2019-02-26T14:15:46.665Z,102758.31
2019-02-26T14:18:18.009Z,102754.95
2019-02-26T14:20:49.365Z,102754.78
2019-02-26T14:23:20.711Z,102747.00
2019-02-26T14:25:52.188Z,102746.28
2019-02-26T14:28:23.689Z,102740.27
2019-02-26T14:30:55.019Z,102738.58
2019-02-26T14:33:26.499Z,102732.03
2019-02-26T14:35:57.921Z,102727.45
2019-02-26T14:38:29.363Z,102732.52
2019-02-26T14:41:02.249Z,102726.73
2019-02-26T14:43:33.684Z,102727.01
2019-02-26T14:46:04.957Z,102730.12
2019-02-26T14:48:55.664Z,102721.48
2019-02-26T14:51:27.389Z,102730.41
2019-02-26T14:53:58.736Z,102724.41
2019-02-26T14:56:30.232Z,102728.44
2019-02-26T14:59:01.615Z,102720.86
2019-02-26T15:01:33.729Z,102720.22
2019-02-26T15:04:05.329Z,102719.74
2019-02-26T15:06:36.593Z,102714.98
2019-02-26T15:09:08.987Z,102717.35
2019-02-26T15:11:40.633Z,102712.94
2019-02-26T15:14:12.035Z,102704.16
2019-02-26T15:16:43.910Z,102701.30
2019-02-26T15:19:18.796Z,102702.77
2019-02-26T15:21:59.109Z,102701.22
2019-02-26T15:24:30.678Z,102693.94
2019-02-26T15:27:02.462Z,102699.05
2019-02-26T15:29:33.859Z,102701.50
2019-02-26T15:32:05.654Z,102698.00
2019-02-26T15:34:37.582Z,102698.53
2019-02-26T15:37:09.447Z,102695.80
2019-02-26T15:39:43.205Z,102694.84
2019-02-26T15:42:14.807Z,102697.84
2019-02-26T15:44:46.245Z,102702.06
2019-02-26T15:47:17.639Z,102695.77
2019-02-26T15:49:49.321Z,102693.94
2019-02-26T15:52:22.249Z,102694.23
2019-02-26T15:54:57.337Z,102697.28
2019-02-26T15:57:31.135Z,102695.59
2019-02-26T16:00:06.469Z,102688.73
2019-02-26T16:02:36.814Z,102689.08
2019-02-26T16:05:09.775Z,102690.12
2019-02-26T16:07:41.039Z,102690.42
2019-02-26T16:10:12.735Z,102690.03
2019-02-26T16:12:44.224Z,102688.80
2019-02-26T16:15:16.023Z,102683.02
2019-02-26T16:17:47.453Z,102686.01
2019-02-26T16:20:21.908Z,102682.56
2019-02-26T16:22:53.327Z,102684.37
2019-02-26T16:25:27.457Z,102683.42
2019-02-26T16:27:59.002Z,102683.69
2019-02-26T16:30:31.147Z,102683.62
2019-02-26T16:33:02.502Z,102683.83
2019-02-26T16:35:34.069Z,102686.55
2019-02-26T16:38:05.578Z,102689.05
2019-02-26T16:40:37.089Z,102688.55
2019-02-26T16:43:08.665Z,102691.47
2019-02-26T16:45:40.203Z,102688.14
2019-02-26T16:48:11.698Z,102687.37
2019-02-26T16:50:45.150Z,102688.59
2019-02-26T16:53:16.163Z,102686.45
2019-02-26T16:55:49.063Z,102695.91
2019-02-26T16:58:39.460Z,102697.39
2019-02-26T17:01:30.225Z,102697.05
2019-02-26T17:04:02.383Z,102702.22
2019-02-26T17:06:35.780Z,102690.33
2019-02-26T17:09:09.448Z,102702.20
2019-02-26T17:11:41.098Z,102700.39
2019-02-26T17:14:14.827Z,102698.48
2019-02-26T17:16:47.238Z,102698.34
2019-02-26T17:19:21.780Z,102702.63
2019-02-26T17:21:53.694Z,102704.05
2019-02-26T17:24:25.736Z,102713.39
2019-02-26T17:26:57.444Z,102711.50
2019-02-26T17:29:29.491Z,102708.27
2019-02-26T17:32:04.873Z,102699.98
2019-02-26T17:34:47.717Z,102704.50
2019-02-26T17:37:19.181Z,102704.69
2019-02-26T17:39:54.454Z,102702.19
2019-02-26T17:42:27.361Z,102706.28
2019-02-26T17:45:02.049Z,102718.81
2019-02-26T17:47:36.365Z,102708.56
2019-02-26T17:50:16.320Z,102709.96
2019-02-26T17:52:48.254Z,102705.27
2019-02-26T17:55:21.351Z,102709.67
2019-02-26T17:57:53.083Z,102708.28
2019-02-26T18:00:25.327Z,102708.70
2019-02-26T18:02:56.842Z,102703.77
2019-02-26T18:05:32.140Z,102709.22
2019-02-26T18:08:03.898Z,102708.09
2019-02-26T18:10:40.340Z,102705.89
2019-02-26T18:13:11.962Z,102704.48
2019-02-26T18:15:46.814Z,102691.25
2019-02-26T18:18:18.654Z,102695.02
2019-02-26T18:20:52.691Z,102695.84
2019-02-26T18:23:24.330Z,102697.30
2019-02-26T18:25:55.858Z,102695.37
2019-02-26T18:28:27.791Z,102691.63
2019-02-26T18:31:00.745Z,102697.23
2019-02-26T18:33:35.567Z,102699.04
2019-02-26T18:36:05.464Z,102701.56
2019-02-26T18:38:37.226Z,102700.77
2019-02-26T18:41:09.085Z,102695.67
2019-02-26T18:43:41.345Z,102694.24
2019-02-26T18:46:12.963Z,102692.95
2019-02-26T18:48:48.329Z,102700.14
2019-02-26T18:51:18.209Z,102692.19
2019-02-26T18:53:50.064Z,102689.91
2019-02-26T18:56:24.448Z,102691.02
2019-02-26T18:58:56.098Z,102686.10
2019-02-26T19:01:28.461Z,102688.12
2019-02-26T19:04:00.710Z,102686.16
2019-02-26T19:06:32.320Z,102687.58
2019-02-26T19:09:23.063Z,102688.31
2019-02-26T19:12:13.816Z,102677.78
2019-02-26T19:14:50.531Z,102680.80
2019-02-26T19:17:21.897Z,102677.70
2019-02-26T19:20:09.861Z,102684.33
2019-02-26T19:22:41.277Z,102691.10
2019-02-26T19:25:13.037Z,102689.62
2019-02-26T19:27:44.446Z,102688.89
2019-02-26T19:30:17.995Z,102691.05
2019-02-26T19:32:49.318Z,102687.07
2019-02-26T19:35:21.048Z,102685.70
2019-02-26T19:37:55.914Z,102694.87
2019-02-26T19:40:38.760Z,102688.13
2019-02-26T19:43:07.704Z,102690.95
2019-02-26T19:45:44.316Z,102688.89
2019-02-26T19:48:14.837Z,102684.37
2019-02-26T19:50:48.707Z,102679.50
2019-02-26T19:53:19.292Z,102674.84
2019-02-26T19:55:53.011Z,102673.08
2019-02-26T19:58:24.058Z,102675.59
2019-02-26T20:00:55.339Z,102677.15
2019-02-26T20:03:26.683Z,102677.45
2019-02-26T20:05:57.895Z,102680.48
2019-02-26T20:08:31.842Z,102674.27
2019-02-26T20:11:02.761Z,102671.62
2019-02-26T20:13:34.653Z,102675.56
2019-02-26T20:16:10.355Z,102672.43
2019-02-26T20:19:00.626Z,102674.96
2019-02-26T20:21:31.954Z,102670.48
2019-02-26T20:24:06.135Z,102670.01
2019-02-26T20:26:38.844Z,102667.27
2019-02-26T20:29:12.116Z,102659.27
2019-02-26T20:31:44.370Z,102661.50
2019-02-26T20:34:16.530Z,102662.09
2019-02-26T20:36:48.758Z,102664.36
2019-02-26T20:39:24.216Z,102664.58
2019-02-26T20:42:01.053Z,102663.06
2019-02-26T20:44:37.230Z,102661.23
2019-02-26T20:47:13.212Z,102657.57
2019-02-26T20:49:48.093Z,102655.05
2019-02-26T20:52:19.447Z,102659.08
2019-02-26T20:54:53.864Z,102653.66
2019-02-26T20:57:25.172Z,102655.75
2019-02-26T20:59:56.668Z,102654.42
2019-02-26T21:02:31.659Z,102655.67
2019-02-26T21:05:03.026Z,102655.36
2019-02-26T21:07:35.658Z,102651.21
2019-02-26T21:10:08.020Z,102648.86
2019-02-26T21:12:42.186Z,102649.67
2019-02-26T21:15:16.559Z,102641.45
2019-02-26T21:17:47.970Z,102642.91
2019-02-26T21:20:19.462Z,102641.88
2019-02-26T21:23:28.707Z,102648.02
2019-02-26T21:26:19.682Z,102643.56
2019-02-26T21:28:51.876Z,102653.98
2019-02-26T21:31:23.277Z,102648.78
2019-02-26T21:33:54.667Z,102646.78
2019-02-26T21:36:27.982Z,102646.03
2019-02-26T21:38:59.053Z,102640.94
2019-02-26T21:41:30.419Z,102634.66
2019-02-26T21:44:01.869Z,102631.66
2019-02-26T21:46:33.562Z,102630.22
2019-02-26T21:49:04.915Z,102632.58
2019-02-26T21:51:36.295Z,102630.11
2019-02-26T21:54:07.682Z,102639.36
2019-02-26T21:56:38.926Z,102632.92
2019-02-26T21:59:10.318Z,102625.73
2019-02-26T22:01:45.839Z,102635.77
2019-02-26T22:04:14.518Z,102633.29
2019-02-26T22:06:47.683Z,102630.48
2019-02-26T22:09:21.971Z,102627.46
2019-02-26T22:11:53.275Z,102628.49
2019-02-26T22:14:25.944Z,102632.80
2019-02-26T22:16:57.714Z,102630.56
2019-02-26T22:19:29.123Z,102625.31
2019-02-26T22:22:00.563Z,102620.96
2019-02-26T22:24:32.045Z,102622.54
2019-02-26T22:27:05.124Z,102625.47
2019-02-26T22:30:21.463Z,102619.52
2019-02-26T22:33:10.288Z,102621.19
2019-02-26T22:35:41.703Z,102619.01
2019-02-26T22:38:15.362Z,102617.75
2019-02-26T22:40:45.977Z,102620.84
2019-02-26T22:43:17.247Z,102621.50
2019-02-26T22:45:48.741Z,102618.33
2019-02-26T22:48:20.055Z,102623.09
2019-02-26T22:50:51.386Z,102621.31
2019-02-26T22:53:22.631Z,102619.33
2019-02-26T22:55:53.931Z,102616.98
2019-02-26T22:58:25.326Z,102618.91
2019-02-26T23:01:17.865Z,102614.80
2019-02-26T23:03:49.247Z,102619.03
2019-02-26T23:06:20.907Z,102610.81
2019-02-26T23:08:52.546Z,102617.98
2019-02-26T23:11:24.220Z,102613.73
2019-02-26T23:13:55.851Z,102612.84
2019-02-26T23:16:27.579Z,102611.15
2019-02-26T23:19:01.391Z,102611.45
2019-02-26T23:21:32.773Z,102609.69
2019-02-26T23:24:04.857Z,102610.32
2019-02-26T23:26:36.716Z,102614.28
2019-02-26T23:29:08.472Z,102605.48
2019-02-26T23:31:39.908Z,102602.08
2019-02-26T23:34:11.536Z,102601.16
2019-02-26T23:37:01.931Z,102596.11
2019-02-26T23:39:53.617Z,102597.28
2019-02-26T23:42:25.443Z,102599.28
2019-02-26T23:44:56.777Z,102596.59
2019-02-26T23:47:28.053Z,102590.57
2019-02-26T23:49:59.464Z,102587.08
2019-02-26T23:52:30.800Z,102584.66
2019-02-26T23:55:02.182Z,102585.30
2019-02-26T23:57:36.427Z,102588.97
